createdAt,value
2023-03-17T00:00:48.729Z,67.61
2023-03-17T00:01:37.847Z,67.27
2023-03-17T00:04:04.772Z,68.31
2023-03-17T00:05:48.815Z,68.31
2023-03-17T00:06:34.024Z,68.75
2023-03-17T00:09:00.508Z,68.27
2023-03-17T00:10:48.700Z,68.27
2023-03-17T00:11:27.842Z,69.04
2023-03-17T00:13:54.422Z,69.25
2023-03-17T00:15:48.741Z,69.25
2023-03-17T00:16:27.047Z,68.74
2023-03-17T00:18:54.073Z,69.50
2023-03-17T00:20:48.854Z,23
2023-03-17T00:21:32.185Z,68.60
2023-03-17T00:24:01.309Z,69.47
2023-03-17T00:25:48.868Z,69.47
2023-03-17T00:26:28.569Z,68.40
2023-03-17T00:28:55.335Z,68.75
2023-03-17T00:30:48.707Z,68.75
2023-03-17T00:31:26.131Z,69.42
2023-03-17T00:33:54.129Z,69.14
2023-03-17T00:35:48.742Z,69.14
2023-03-17T00:36:24.088Z,69.36
2023-03-17T00:38:52.525Z,70.24
2023-03-17T00:40:48.749Z,70.24
2023-03-17T00:41:19.416Z,70.54
2023-03-17T00:43:45.876Z,71.23
2023-03-17T00:45:48.765Z,71.23
2023-03-17T00:46:21.785Z,72.14
2023-03-17T00:48:48.642Z,71.71
2023-03-17T00:50:48.775Z,71.71
2023-03-17T00:51:17.947Z,72.52
2023-03-17T00:53:44.458Z,73.36
2023-03-17T00:55:48.720Z,73.36
2023-03-17T00:56:21.128Z,73.29
2023-03-17T00:58:48.677Z,74.07
2023-03-17T01:00:48.788Z,74.07
2023-03-17T01:01:16.069Z,73.17
2023-03-17T01:03:42.726Z,73.29
2023-03-17T01:05:48.695Z,73.29
2023-03-17T01:06:12.002Z,74.21
2023-03-17T01:08:40.593Z,73.90
2023-03-17T01:10:48.721Z,73.90
2023-03-17T01:11:07.407Z,74.00
2023-03-17T01:13:34.282Z,73.97
2023-03-17T01:15:48.695Z,73.97
2023-03-17T01:16:01.268Z,73.11
2023-03-17T01:18:27.806Z,72.52
2023-03-17T01:20:48.723Z,72.52
2023-03-17T01:20:54.602Z,72.41
2023-03-17T01:23:22.177Z,72.33
2023-03-17T01:25:49.163Z,72.13
2023-03-17T01:25:49.744Z,72.13
2023-03-17T01:28:18.541Z,72.38
2023-03-17T01:30:45.707Z,72.28
2023-03-17T01:30:48.703Z,72.28
2023-03-17T01:33:13.292Z,72.82
2023-03-17T01:35:43.774Z,73.02
2023-03-17T01:35:48.738Z,73.02
2023-03-17T01:38:10.580Z,72.69
2023-03-17T01:40:43.394Z,73.14
2023-03-17T01:40:48.712Z,73.14
2023-03-17T01:43:09.690Z,72.92
2023-03-17T01:46:14.183Z,72.39
2023-03-17T01:46:14.329Z,72.39
2023-03-17T01:48:44.583Z,72.93
2023-03-17T01:50:48.716Z,72.93
2023-03-17T01:51:18.561Z,73.03
2023-03-17T01:53:48.107Z,73.25
2023-03-17T01:55:48.792Z,73.25
2023-03-17T01:56:15.512Z,73.55
2023-03-17T01:58:42.981Z,74.09
2023-03-17T02:00:48.753Z,74.09
2023-03-17T02:01:10.655Z,74.48
2023-03-17T02:03:37.022Z,73.79
2023-03-17T02:05:48.725Z,73.79
2023-03-17T02:06:04.931Z,74.56
2023-03-17T02:08:31.434Z,74.31
2023-03-17T02:10:48.739Z,74.31
2023-03-17T02:10:58.212Z,74.14
2023-03-17T02:13:24.669Z,74.97
2023-03-17T02:15:48.722Z,74.97
2023-03-17T02:15:52.342Z,74.50
2023-03-17T02:18:21.738Z,75.45
2023-03-17T02:20:47.979Z,74.59
2023-03-17T02:20:48.711Z,74.59
2023-03-17T02:23:17.898Z,75.43
2023-03-17T02:25:47.251Z,75.34
2023-03-17T02:25:48.745Z,75.34
2023-03-17T02:28:19.030Z,75.72
2023-03-17T02:30:45.452Z,75.96
2023-03-17T02:30:49.190Z,75.96
2023-03-17T02:33:12.339Z,75.66
2023-03-17T02:35:39.834Z,76.04
2023-03-17T02:35:48.832Z,76.04
2023-03-17T02:38:06.320Z,76.14
2023-03-17T02:40:33.144Z,76.28
2023-03-17T02:40:48.744Z,76.28
2023-03-17T02:43:00.689Z,75.79
2023-03-17T02:45:27.515Z,75.31
2023-03-17T02:45:48.791Z,75.31
2023-03-17T02:47:55.894Z,76.05
2023-03-17T02:50:27.915Z,76.39
2023-03-17T02:50:48.748Z,76.39
2023-03-17T02:52:54.741Z,76.57
2023-03-17T02:55:21.248Z,77.36
2023-03-17T02:55:48.737Z,77.36
2023-03-17T02:57:47.702Z,77.68
2023-03-17T03:00:16.580Z,77.83
2023-03-17T03:00:48.737Z,77.83
2023-03-17T03:02:43.303Z,79.47
2023-03-17T03:05:10.720Z,79.71
2023-03-17T03:05:48.726Z,79.71
2023-03-17T03:07:37.471Z,79.59
2023-03-17T03:10:05.374Z,79.53
2023-03-17T03:10:48.799Z,79.53
2023-03-17T03:12:32.716Z,80.70
2023-03-17T03:14:59.635Z,80.12
2023-03-17T03:15:48.908Z,80.12
2023-03-17T03:17:26.478Z,80.80
2023-03-17T03:19:55.487Z,80.68
2023-03-17T03:20:48.739Z,80.68
2023-03-17T03:22:21.829Z,80.38
2023-03-17T03:24:48.206Z,79.58
2023-03-17T03:25:48.788Z,79.58
2023-03-17T03:27:14.649Z,79.61
2023-03-17T03:29:41.651Z,78.98
2023-03-17T03:30:48.777Z,78.98
2023-03-17T03:32:08.327Z,80.57
2023-03-17T03:34:34.763Z,79.48
2023-03-17T03:35:48.750Z,79.48
2023-03-17T03:37:01.214Z,79.67
2023-03-17T03:39:30.013Z,79.72
2023-03-17T03:40:48.766Z,79.72
2023-03-17T03:41:58.316Z,79.65
2023-03-17T03:44:25.253Z,80.08
2023-03-17T03:45:48.758Z,80.08
2023-03-17T03:46:51.945Z,80.70
2023-03-17T03:49:18.772Z,80.43
2023-03-17T03:50:48.732Z,80.43
2023-03-17T03:51:45.148Z,80.70
2023-03-17T03:54:11.506Z,80.41
2023-03-17T03:55:48.723Z,80.41
2023-03-17T03:56:38.348Z,80.29
2023-03-17T03:59:04.980Z,80.38
2023-03-17T04:00:48.744Z,80.38
2023-03-17T04:01:33.931Z,81.14
2023-03-17T04:04:00.478Z,80.67
2023-03-17T04:05:48.756Z,80.67
2023-03-17T04:06:26.893Z,81.37
2023-03-17T04:08:53.269Z,81.72
2023-03-17T04:10:48.791Z,81.72
2023-03-17T04:11:19.646Z,81.79
2023-03-17T04:13:46.221Z,81.68
2023-03-17T04:15:48.758Z,81.68
2023-03-17T04:16:12.730Z,80.90
2023-03-17T04:18:39.317Z,81.95
2023-03-17T04:20:48.732Z,81.95
2023-03-17T04:21:06.227Z,82.27
2023-03-17T04:23:32.646Z,81.56
2023-03-17T04:25:48.808Z,81.56
2023-03-17T04:25:59.137Z,81.76
2023-03-17T04:28:25.731Z,81.53
2023-03-17T04:30:48.749Z,81.53
2023-03-17T04:30:52.164Z,82.58
2023-03-17T04:33:20.144Z,82.53
2023-03-17T04:35:46.646Z,82.40
2023-03-17T04:35:48.799Z,82.40
2023-03-17T04:38:13.532Z,82.80
2023-03-17T04:40:39.966Z,82.56
2023-03-17T04:40:48.742Z,82.56
2023-03-17T04:43:06.518Z,83.20
2023-03-17T04:45:33.240Z,81.82
2023-03-17T04:45:48.773Z,81.82
2023-03-17T04:47:59.788Z,82.31
2023-03-17T04:50:26.531Z,81.12
2023-03-17T04:50:48.754Z,81.12
2023-03-17T04:52:52.968Z,81.51
2023-03-17T04:55:19.486Z,81.38
2023-03-17T04:55:48.841Z,81.38
2023-03-17T04:57:48.869Z,81.23
2023-03-17T05:00:15.764Z,81.26
2023-03-17T05:00:48.788Z,81.26
2023-03-17T05:02:42.388Z,80.76
2023-03-17T05:05:09.929Z,80.96
2023-03-17T05:05:48.733Z,80.96
2023-03-17T05:07:36.553Z,80.08
2023-03-17T05:10:03.241Z,80.72
2023-03-17T05:10:48.725Z,80.72
2023-03-17T05:12:29.648Z,80.84
2023-03-17T05:14:56.183Z,80.82
2023-03-17T05:15:48.758Z,80.82
2023-03-17T05:17:22.561Z,79.79
2023-03-17T05:19:48.897Z,79.75
2023-03-17T05:20:48.738Z,79.75
2023-03-17T05:22:18.119Z,79.54
2023-03-17T05:24:44.665Z,80.88
2023-03-17T05:25:48.939Z,80.88
2023-03-17T05:27:11.461Z,80.23
2023-03-17T05:29:38.087Z,79.81
2023-03-17T05:30:48.965Z,79.81
2023-03-17T05:32:05.009Z,79.86
2023-03-17T05:34:32.010Z,80.20
2023-03-17T05:35:48.877Z,80.20
2023-03-17T05:36:58.609Z,80.11
2023-03-17T05:39:25.021Z,79.60
2023-03-17T05:40:48.737Z,79.60
2023-03-17T05:41:51.761Z,79.43
2023-03-17T05:44:18.214Z,79.31
2023-03-17T05:45:48.810Z,79.31
2023-03-17T05:46:47.558Z,79.82
2023-03-17T05:49:13.981Z,80.15
2023-03-17T05:50:48.719Z,80.15
2023-03-17T05:51:41.807Z,79.92
2023-03-17T05:54:11.050Z,80.27
2023-03-17T05:55:48.819Z,80.27
2023-03-17T05:56:37.431Z,79.92
2023-03-17T05:59:04.562Z,80.59
2023-03-17T06:00:50.789Z,80.59
2023-03-17T06:01:31.391Z,79.78
2023-03-17T06:04:01.657Z,79.48
2023-03-17T06:05:48.739Z,79.48
2023-03-17T06:06:28.609Z,80.78
2023-03-17T06:08:54.979Z,80.05
2023-03-17T06:10:48.765Z,80.05
2023-03-17T06:11:21.659Z,79.95
2023-03-17T06:13:48.949Z,79.73
2023-03-17T06:15:48.790Z,79.73
2023-03-17T06:16:15.637Z,80.26
2023-03-17T06:18:42.125Z,78.82
2023-03-17T06:20:48.730Z,78.82
2023-03-17T06:21:08.492Z,78.68
2023-03-17T06:23:34.950Z,78.41
2023-03-17T06:25:48.838Z,78.41
2023-03-17T06:26:01.578Z,78.95
2023-03-17T06:28:28.006Z,78.03
2023-03-17T06:30:48.802Z,78.03
2023-03-17T06:30:54.368Z,77.98
2023-03-17T06:33:20.712Z,77.84
2023-03-17T06:35:47.519Z,77.58
2023-03-17T06:35:48.861Z,77.58
2023-03-17T06:38:13.966Z,76.72
2023-03-17T06:40:40.674Z,76.16
2023-03-17T06:40:48.744Z,76.16
2023-03-17T06:43:07.546Z,74.79
2023-03-17T06:45:34.844Z,74.46
2023-03-17T06:45:48.767Z,74.46
2023-03-17T06:48:02.254Z,73.54
2023-03-17T06:50:28.952Z,74.45
2023-03-17T06:50:48.765Z,74.45
2023-03-17T06:52:55.483Z,73.47
2023-03-17T06:55:22.136Z,74.16
2023-03-17T06:55:48.770Z,74.16
2023-03-17T06:57:50.944Z,73.41
2023-03-17T07:00:22.490Z,72.59
2023-03-17T07:00:48.759Z,72.59
2023-03-17T07:02:49.539Z,72.00
2023-03-17T07:05:16.044Z,72.34
2023-03-17T07:05:48.771Z,72.34
2023-03-17T07:07:42.575Z,71.20
2023-03-17T07:10:13.758Z,70.37
2023-03-17T07:10:48.747Z,70.37
2023-03-17T07:12:40.125Z,71.12
2023-03-17T07:15:06.992Z,70.45
2023-03-17T07:15:48.855Z,70.45
2023-03-17T07:17:33.674Z,69.60
2023-03-17T07:20:00.084Z,69.02
2023-03-17T07:20:48.779Z,69.02
2023-03-17T07:22:27.002Z,67.52
2023-03-17T07:24:53.404Z,67.10
2023-03-17T07:25:48.875Z,67.10
2023-03-17T07:27:22.778Z,66.81
2023-03-17T07:29:49.545Z,65.90
2023-03-17T07:30:48.751Z,65.90
2023-03-17T07:32:16.025Z,65.61
2023-03-17T07:34:42.684Z,65.01
2023-03-17T07:35:48.850Z,65.01
2023-03-17T07:37:10.326Z,64.45
2023-03-17T07:39:36.752Z,64.50
2023-03-17T07:40:48.805Z,64.50
2023-03-17T07:42:03.345Z,64.05
2023-03-17T07:44:30.436Z,63.65
2023-03-17T07:45:48.836Z,63.65
2023-03-17T07:46:56.874Z,63.27
2023-03-17T07:49:40.053Z,63.11
2023-03-17T07:50:48.778Z,63.11
2023-03-17T07:52:09.479Z,62.72
2023-03-17T07:54:36.933Z,62.88
2023-03-17T07:55:48.758Z,62.88
2023-03-17T07:57:04.203Z,63.29
2023-03-17T07:59:31.586Z,62.54
2023-03-17T08:00:48.762Z,62.54
2023-03-17T08:02:00.038Z,63.08
2023-03-17T08:04:27.578Z,63.58
2023-03-17T08:05:48.771Z,63.58
2023-03-17T08:06:54.521Z,62.89
2023-03-17T08:09:22.303Z,62.94
2023-03-17T08:10:48.745Z,62.94
2023-03-17T08:11:48.844Z,62.61
2023-03-17T08:14:15.474Z,63.33
2023-03-17T08:15:48.753Z,63.33
2023-03-17T08:16:42.208Z,62.40
2023-03-17T08:19:08.673Z,61.97
2023-03-17T08:20:48.724Z,61.97
2023-03-17T08:21:35.132Z,62.03
2023-03-17T08:24:01.649Z,61.59
2023-03-17T08:25:48.850Z,61.59
2023-03-17T08:26:28.389Z,61.72
2023-03-17T08:28:54.817Z,61.90
2023-03-17T08:30:50.579Z,61.90
2023-03-17T08:31:22.645Z,61.50
2023-03-17T08:33:52.382Z,61.05
2023-03-17T08:35:48.780Z,61.05
2023-03-17T08:36:19.143Z,61.26
2023-03-17T08:38:46.608Z,61.56
2023-03-17T08:40:48.755Z,61.56
2023-03-17T08:41:16.659Z,61.30
2023-03-17T08:43:43.805Z,61.22
2023-03-17T08:45:48.905Z,61.22
2023-03-17T08:46:23.119Z,60.36
2023-03-17T08:48:51.023Z,61.36
2023-03-17T08:50:48.894Z,61.36
2023-03-17T08:51:20.255Z,60.50
2023-03-17T08:53:47.842Z,60.73
2023-03-17T08:55:48.774Z,60.73
2023-03-17T08:56:14.941Z,60.90
2023-03-17T08:58:43.063Z,60.24
2023-03-17T09:00:48.762Z,60.24
2023-03-17T09:01:10.836Z,60.48
2023-03-17T09:03:39.371Z,59.61
2023-03-17T09:05:48.793Z,59.61
2023-03-17T09:06:07.603Z,59.45
2023-03-17T09:08:35.429Z,58.40
2023-03-17T09:10:48.778Z,58.40
2023-03-17T09:11:03.839Z,58.03
2023-03-17T09:13:30.180Z,57.93
2023-03-17T09:15:50.107Z,57.93
2023-03-17T09:15:56.599Z,57.22
2023-03-17T09:18:23.029Z,56.25
2023-03-17T09:20:49.569Z,57.12
2023-03-17T09:20:49.740Z,57.12
2023-03-17T09:23:16.432Z,56.18
2023-03-17T09:25:43.484Z,56.05
2023-03-17T09:25:48.784Z,56.05
2023-03-17T09:28:12.534Z,56.31
2023-03-17T09:30:45.587Z,57.07
2023-03-17T09:30:48.808Z,57.07
2023-03-17T09:33:14.038Z,57.08
2023-03-17T09:35:41.002Z,56.27
2023-03-17T09:35:48.812Z,56.27
2023-03-17T09:38:08.500Z,55.64
2023-03-17T09:40:47.873Z,55.21
2023-03-17T09:40:48.771Z,55.21
2023-03-17T09:43:42.519Z,54.92
2023-03-17T09:45:48.791Z,54.92
2023-03-17T09:46:39.854Z,54.71
2023-03-17T09:49:14.313Z,55.31
2023-03-17T09:50:48.838Z,55.31
2023-03-17T09:51:40.881Z,55.27
2023-03-17T09:54:24.323Z,55.43
2023-03-17T09:55:48.745Z,55.43
2023-03-17T09:56:59.015Z,54.14
2023-03-17T09:59:38.539Z,53.61
2023-03-17T10:00:48.800Z,53.61
2023-03-17T10:02:26.911Z,53.45
2023-03-17T10:04:54.182Z,53.52
2023-03-17T10:05:48.835Z,53.52
2023-03-17T10:07:39.160Z,52.78
2023-03-17T10:10:16.766Z,52.39
2023-03-17T10:10:48.780Z,52.39
2023-03-17T10:12:51.335Z,52.75
2023-03-17T10:15:23.412Z,52.69
2023-03-17T10:15:48.760Z,52.69
2023-03-17T10:17:51.985Z,52.71
2023-03-17T10:20:27.209Z,52.48
2023-03-17T10:20:51.384Z,52.48
2023-03-17T10:23:00.930Z,53.40
2023-03-17T10:25:33.812Z,52.80
2023-03-17T10:25:48.815Z,52.80
2023-03-17T10:28:12.182Z,52.51
2023-03-17T10:30:39.682Z,52.69
2023-03-17T10:30:48.751Z,52.69
2023-03-17T10:33:09.586Z,51.84
2023-03-17T10:35:39.314Z,51.43
2023-03-17T10:35:48.926Z,51.43
2023-03-17T10:38:22.493Z,52.07
2023-03-17T10:40:58.654Z,51.78
2023-03-17T10:40:58.896Z,51.78
2023-03-17T10:43:30.173Z,51.57
2023-03-17T10:45:48.741Z,51.57
2023-03-17T10:46:02.409Z,51.04
2023-03-17T10:48:30.588Z,49.57
2023-03-17T10:50:49.697Z,49.57
2023-03-17T10:51:00.834Z,48.86
2023-03-17T10:53:30.627Z,49.89
2023-03-17T10:55:48.801Z,49.89
2023-03-17T10:56:00.978Z,49.08
2023-03-17T10:58:38.981Z,49.55
2023-03-17T11:00:48.794Z,49.55
2023-03-17T11:01:17.344Z,48.01
2023-03-17T11:03:46.358Z,48.05
2023-03-17T11:05:48.770Z,48.05
2023-03-17T11:06:19.154Z,47.17
2023-03-17T11:08:53.638Z,46.88
2023-03-17T11:10:48.759Z,46.88
2023-03-17T11:11:28.033Z,48.06
2023-03-17T11:14:13.490Z,47.76
2023-03-17T11:15:48.766Z,47.76
2023-03-17T11:17:01.118Z,47.40
2023-03-17T11:19:46.015Z,47.21
2023-03-17T11:20:48.749Z,47.21
2023-03-17T11:22:33.450Z,47.08
2023-03-17T11:25:09.862Z,48.29
2023-03-17T11:25:48.849Z,48.29
2023-03-17T11:28:04.584Z,48.02
2023-03-17T11:30:43.312Z,47.02
2023-03-17T11:30:48.799Z,47.02
2023-03-17T11:33:47.009Z,46.94
2023-03-17T11:35:48.967Z,46.94
2023-03-17T11:36:53.580Z,46.96
2023-03-17T11:40:00.921Z,46.62
2023-03-17T11:40:48.860Z,46.62
2023-03-17T11:42:51.276Z,46.75
2023-03-17T11:45:28.079Z,45.86
2023-03-17T11:45:48.910Z,45.86
2023-03-17T11:48:08.256Z,46.73
2023-03-17T11:50:45.650Z,47.07
2023-03-17T11:50:48.863Z,47.07
2023-03-17T11:53:33.537Z,47.01
2023-03-17T11:55:48.882Z,47.01
2023-03-17T11:56:05.497Z,46.88
2023-03-17T11:58:42.851Z,46.67
2023-03-17T12:00:48.975Z,46.67
2023-03-17T12:01:15.991Z,47.29
2023-03-17T12:03:48.866Z,47.15
2023-03-17T12:05:48.920Z,47.15
2023-03-17T12:06:21.668Z,47.80
2023-03-17T12:08:53.387Z,48.42
2023-03-17T12:10:48.948Z,23
2023-03-17T12:11:26.111Z,47.82
2023-03-17T12:14:26.446Z,47.94
2023-03-17T12:15:48.996Z,47.94
2023-03-17T12:17:12.276Z,47.78
2023-03-17T12:19:58.353Z,46.85
2023-03-17T12:20:49.020Z,46.85
2023-03-17T12:22:32.630Z,46.55
2023-03-17T12:25:11.062Z,45.96
2023-03-17T12:25:49.090Z,45.96
2023-03-17T12:27:46.548Z,45.69
2023-03-17T12:30:52.142Z,46.46
2023-03-17T12:30:52.367Z,46.46
2023-03-17T12:33:24.690Z,45.96
2023-03-17T12:35:49.211Z,45.96
2023-03-17T12:35:52.000Z,45.60
2023-03-17T12:38:33.120Z,45.46
2023-03-17T12:40:49.094Z,45.46
2023-03-17T12:41:33.907Z,46.58
2023-03-17T12:44:00.461Z,46.27
2023-03-17T12:45:49.107Z,46.27
2023-03-17T12:47:02.353Z,46.25
2023-03-17T12:49:42.144Z,46.42
2023-03-17T12:50:49.138Z,46.42
2023-03-17T12:52:37.629Z,46.59
2023-03-17T12:55:09.551Z,46.65
2023-03-17T12:55:49.179Z,46.65
2023-03-17T12:57:45.820Z,46.22
2023-03-17T13:00:28.330Z,47.03
2023-03-17T13:00:49.203Z,47.03
2023-03-17T13:03:21.019Z,46.64
2023-03-17T13:05:50.773Z,45.66
2023-03-17T13:05:50.938Z,45.66
2023-03-17T13:08:31.018Z,45.61
2023-03-17T13:10:49.215Z,45.61
2023-03-17T13:11:36.248Z,45.39
2023-03-17T13:14:27.035Z,45.72
2023-03-17T13:15:49.314Z,45.72
2023-03-17T13:17:06.091Z,46.39
2023-03-17T13:19:33.500Z,46.13
2023-03-17T13:20:49.249Z,46.13
2023-03-17T13:22:00.514Z,45.37
2023-03-17T13:24:42.364Z,45.97
2023-03-17T13:25:49.358Z,45.97
2023-03-17T13:27:14.443Z,46.09
2023-03-17T13:29:45.030Z,45.84
2023-03-17T13:30:49.338Z,45.84
2023-03-17T13:32:17.409Z,45.90
2023-03-17T13:35:16.662Z,45.23
2023-03-17T13:35:49.354Z,45.23
2023-03-17T13:37:52.109Z,45.66
2023-03-17T13:40:29.872Z,45.58
2023-03-17T13:40:49.385Z,45.58
2023-03-17T13:43:04.319Z,45.25
2023-03-17T13:45:39.905Z,45.40
2023-03-17T13:45:49.387Z,45.40
2023-03-17T13:48:36.271Z,45.00
2023-03-17T13:50:49.379Z,45.00
2023-03-17T13:51:14.486Z,45.66
2023-03-17T13:54:07.640Z,45.06
2023-03-17T13:55:49.551Z,45.06
2023-03-17T13:56:36.048Z,45.94
2023-03-17T13:59:02.696Z,45.42
2023-03-17T14:00:49.512Z,45.42
2023-03-17T14:01:50.579Z,45.47
2023-03-17T14:04:30.922Z,45.78
2023-03-17T14:05:49.439Z,45.78
2023-03-17T14:07:04.723Z,45.90
2023-03-17T14:09:42.064Z,46.37
2023-03-17T14:10:49.446Z,46.37
2023-03-17T14:12:19.751Z,46.34
2023-03-17T14:14:55.856Z,46.25
2023-03-17T14:15:49.438Z,46.25
2023-03-17T14:17:30.197Z,46.25
2023-03-17T14:20:26.956Z,47.00
2023-03-17T14:20:49.462Z,47.00
2023-03-17T14:22:56.683Z,46.59
2023-03-17T14:25:25.913Z,46.86
2023-03-17T14:25:49.620Z,46.86
2023-03-17T14:27:56.039Z,47.47
2023-03-17T14:30:28.789Z,47.11
2023-03-17T14:30:49.698Z,47.11
2023-03-17T14:33:15.039Z,47.08
2023-03-17T14:35:43.355Z,47.16
2023-03-17T14:35:49.581Z,47.16
2023-03-17T14:38:19.777Z,47.69
2023-03-17T14:40:49.362Z,47.59
2023-03-17T14:40:49.666Z,47.59
2023-03-17T14:43:16.283Z,47.68
2023-03-17T14:45:51.560Z,47.49
2023-03-17T14:45:51.814Z,47.49
2023-03-17T14:48:26.466Z,47.45
2023-03-17T14:50:49.630Z,47.45
2023-03-17T14:50:59.848Z,47.16
2023-03-17T14:53:26.393Z,47.20
2023-03-17T14:55:49.668Z,47.20
2023-03-17T14:55:53.745Z,47.52
2023-03-17T14:58:26.908Z,48.17
2023-03-17T15:00:49.787Z,48.17
2023-03-17T15:01:12.088Z,47.56
2023-03-17T15:03:40.516Z,48.25
2023-03-17T15:05:49.771Z,48.25
2023-03-17T15:06:13.193Z,49.11
2023-03-17T15:08:43.266Z,48.71
2023-03-17T15:10:49.740Z,48.71
2023-03-17T15:11:27.352Z,49.50
2023-03-17T15:14:03.928Z,49.56
2023-03-17T15:15:49.778Z,49.56
2023-03-17T15:16:35.361Z,50.19
2023-03-17T15:19:08.647Z,50.84
2023-03-17T15:20:49.761Z,50.84
2023-03-17T15:21:40.702Z,51.13
2023-03-17T15:24:26.096Z,51.69
2023-03-17T15:25:49.809Z,51.69
2023-03-17T15:27:07.063Z,51.01
2023-03-17T15:29:33.842Z,51.20
2023-03-17T15:30:50.269Z,51.20
2023-03-17T15:32:09.841Z,51.26
2023-03-17T15:34:36.243Z,51.26
2023-03-17T15:35:49.749Z,51.26
2023-03-17T15:37:02.642Z,51.47
2023-03-17T15:39:29.218Z,51.50
2023-03-17T15:40:49.660Z,51.50
2023-03-17T15:41:55.694Z,51.24
2023-03-17T15:44:22.109Z,51.73
2023-03-17T15:45:49.747Z,51.73
2023-03-17T15:46:48.667Z,52.35
2023-03-17T15:49:15.356Z,52.65
2023-03-17T15:50:49.674Z,52.65
2023-03-17T15:51:41.747Z,51.86
2023-03-17T15:54:13.444Z,51.99
2023-03-17T15:55:49.682Z,51.99
2023-03-17T15:56:39.823Z,52.10
2023-03-17T15:59:07.364Z,52.65
2023-03-17T16:00:49.699Z,52.65
2023-03-17T16:01:33.723Z,52.78
2023-03-17T16:04:00.339Z,52.97
2023-03-17T16:05:49.673Z,52.97
2023-03-17T16:06:26.812Z,53.30
2023-03-17T16:08:53.385Z,53.50
2023-03-17T16:10:49.683Z,53.50
2023-03-17T16:11:28.307Z,53.64
2023-03-17T16:13:56.599Z,53.86
2023-03-17T16:15:49.669Z,53.86
2023-03-17T16:16:31.703Z,53.70
2023-03-17T16:18:58.325Z,53.52
2023-03-17T16:20:49.674Z,53.52
2023-03-17T16:21:25.082Z,52.87
2023-03-17T16:23:51.456Z,52.97
2023-03-17T16:25:49.715Z,52.97
2023-03-17T16:26:18.036Z,52.67
2023-03-17T16:28:46.279Z,53.20
2023-03-17T16:30:49.753Z,53.20
2023-03-17T16:31:38.902Z,52.72
2023-03-17T16:34:15.424Z,53.25
2023-03-17T16:35:49.768Z,53.25
2023-03-17T16:36:43.817Z,53.18
2023-03-17T16:39:16.796Z,53.05
2023-03-17T16:40:49.675Z,53.05
2023-03-17T16:41:48.157Z,53.56
2023-03-17T16:44:16.613Z,54.37
2023-03-17T16:45:49.701Z,54.37
2023-03-17T16:46:44.854Z,53.83
2023-03-17T16:49:15.340Z,53.85
2023-03-17T16:50:49.703Z,53.85
2023-03-17T16:51:43.020Z,54.09
2023-03-17T16:54:10.838Z,54.01
2023-03-17T16:55:49.685Z,54.01
2023-03-17T16:56:39.655Z,54.60
2023-03-17T16:59:10.444Z,54.67
2023-03-17T17:00:49.671Z,54.67
2023-03-17T17:01:36.999Z,54.99
2023-03-17T17:04:03.452Z,54.62
2023-03-17T17:05:49.700Z,54.62
2023-03-17T17:06:29.755Z,57.25
2023-03-17T17:08:56.155Z,58.58
2023-03-17T17:10:49.710Z,58.58
2023-03-17T17:11:24.962Z,59.28
2023-03-17T17:13:51.695Z,59.96
2023-03-17T17:15:49.755Z,59.96
2023-03-17T17:16:25.358Z,60.19
2023-03-17T17:18:51.716Z,59.28
2023-03-17T17:20:49.686Z,59.28
2023-03-17T17:21:18.141Z,59.54
2023-03-17T17:23:45.223Z,60.23
2023-03-17T17:25:49.745Z,60.23
2023-03-17T17:26:11.762Z,60.18
2023-03-17T17:28:40.113Z,60.41
2023-03-17T17:30:49.778Z,60.41
2023-03-17T17:31:09.493Z,60.22
2023-03-17T17:33:36.864Z,60.79
2023-03-17T17:35:49.759Z,60.79
2023-03-17T17:36:12.418Z,61.05
2023-03-17T17:38:38.881Z,61.63
2023-03-17T17:40:49.731Z,61.63
2023-03-17T17:41:08.990Z,63.04
2023-03-17T17:43:35.758Z,62.89
2023-03-17T17:45:49.717Z,62.89
2023-03-17T17:46:02.226Z,63.24
2023-03-17T17:48:28.878Z,64.10
2023-03-17T17:50:49.683Z,64.10
2023-03-17T17:50:56.550Z,63.19
2023-03-17T17:53:23.168Z,62.98
2023-03-17T17:55:50.010Z,63.20
2023-03-17T17:55:50.190Z,63.20
2023-03-17T17:58:19.199Z,63.78
2023-03-17T18:00:46.058Z,63.84
2023-03-17T18:00:49.728Z,63.84
2023-03-17T18:03:12.592Z,64.02
2023-03-17T18:05:39.040Z,64.10
2023-03-17T18:05:49.715Z,64.10
2023-03-17T18:08:06.004Z,64.44
2023-03-17T18:10:33.057Z,64.41
2023-03-17T18:10:52.002Z,64.41
2023-03-17T18:12:59.819Z,64.85
2023-03-17T18:15:27.333Z,65.43
2023-03-17T18:15:49.741Z,65.43
2023-03-17T18:17:54.694Z,66.47
2023-03-17T18:20:22.574Z,69.35
2023-03-17T18:20:49.742Z,69.35
2023-03-17T18:22:50.250Z,71.64
2023-03-17T18:25:17.380Z,73.36
2023-03-17T18:25:49.823Z,73.36
2023-03-17T18:27:44.828Z,76.71
2023-03-17T18:30:14.637Z,79.88
2023-03-17T18:30:49.729Z,79.88
2023-03-17T18:32:43.015Z,80.76
2023-03-17T18:35:14.462Z,83.24
2023-03-17T18:35:49.725Z,83.24
2023-03-17T18:37:41.152Z,83.77
2023-03-17T18:40:15.195Z,83.89
2023-03-17T18:40:49.710Z,83.89
2023-03-17T18:42:45.287Z,83.15
2023-03-17T18:45:12.429Z,82.25
2023-03-17T18:45:49.741Z,82.25
2023-03-17T18:47:40.126Z,82.41
2023-03-17T18:50:08.141Z,82.60
2023-03-17T18:50:49.692Z,82.60
2023-03-17T18:52:36.404Z,81.55
2023-03-17T18:55:03.777Z,80.94
2023-03-17T18:55:49.692Z,80.94
2023-03-17T18:57:31.075Z,79.76
2023-03-17T18:59:57.424Z,78.72
2023-03-17T19:00:49.748Z,78.72
2023-03-17T19:02:23.921Z,78.31
2023-03-17T19:04:50.337Z,78.23
2023-03-17T19:05:49.704Z,78.23
2023-03-17T19:07:17.852Z,78.94
2023-03-17T19:09:44.992Z,77.86
2023-03-17T19:10:49.725Z,77.86
2023-03-17T19:12:11.524Z,77.69
2023-03-17T19:14:41.340Z,77.49
2023-03-17T19:15:49.686Z,77.49
2023-03-17T19:17:10.613Z,77.20
2023-03-17T19:19:37.163Z,76.35
2023-03-17T19:20:49.729Z,76.35
2023-03-17T19:22:06.192Z,76.25
2023-03-17T19:24:35.513Z,75.51
2023-03-17T19:25:49.844Z,75.51
2023-03-17T19:27:02.057Z,75.49
2023-03-17T19:29:28.416Z,75.11
2023-03-17T19:30:49.768Z,75.11
2023-03-17T19:31:54.842Z,75.39
2023-03-17T19:34:21.333Z,75.18
2023-03-17T19:35:49.735Z,75.18
2023-03-17T19:36:48.145Z,74.44
2023-03-17T19:39:15.237Z,74.40
2023-03-17T19:40:49.727Z,74.40
2023-03-17T19:41:41.812Z,74.75
2023-03-17T19:44:08.168Z,74.83
2023-03-17T19:45:49.781Z,74.83
2023-03-17T19:46:37.900Z,74.58
2023-03-17T19:49:04.919Z,74.73
2023-03-17T19:50:49.731Z,74.73
2023-03-17T19:51:34.751Z,74.05
2023-03-17T19:54:01.488Z,74.06
2023-03-17T19:55:49.727Z,74.06
2023-03-17T19:56:27.913Z,74.06
2023-03-17T19:58:54.986Z,74.54
2023-03-17T20:00:49.706Z,74.54
2023-03-17T20:01:22.749Z,74.09
2023-03-17T20:03:49.268Z,75.01
2023-03-17T20:05:49.758Z,75.01
2023-03-17T20:06:16.141Z,74.21
2023-03-17T20:08:43.122Z,74.67
2023-03-17T20:10:49.701Z,74.67
2023-03-17T20:11:11.497Z,75.33
2023-03-17T20:13:38.394Z,75.62
2023-03-17T20:15:49.759Z,75.62
2023-03-17T20:16:09.018Z,75.99
2023-03-17T20:18:37.976Z,77.47
2023-03-17T20:20:49.711Z,77.47
2023-03-17T20:21:08.094Z,79.11
2023-03-17T20:23:36.577Z,80.15
2023-03-17T20:25:49.850Z,80.15
2023-03-17T20:26:03.579Z,83.02
2023-03-17T20:28:30.246Z,84.91
2023-03-17T20:30:49.787Z,84.91
2023-03-17T20:31:00.444Z,86.94
2023-03-17T20:33:27.691Z,88.05
2023-03-17T20:35:49.765Z,88.05
2023-03-17T20:35:54.327Z,90.69
2023-03-17T20:38:21.271Z,92.05
2023-03-17T20:40:47.672Z,95.20
2023-03-17T20:40:49.719Z,95.20
2023-03-17T20:43:14.176Z,98.18
2023-03-17T20:45:41.012Z,99.45
2023-03-17T20:45:49.722Z,99.45
2023-03-17T20:48:10.437Z,100.00
2023-03-17T20:50:38.251Z,100.00
2023-03-17T20:50:49.893Z,100.00
2023-03-17T20:53:04.889Z,100.00
2023-03-17T20:55:31.315Z,100.00
2023-03-17T20:55:49.717Z,100.00
2023-03-17T20:57:59.590Z,100.00
2023-03-17T21:00:26.198Z,100.00
2023-03-17T21:00:49.835Z,100.00
2023-03-17T21:02:53.231Z,100.00
2023-03-17T21:05:23.725Z,100.00
2023-03-17T21:05:49.721Z,100.00
2023-03-17T21:07:50.582Z,100.00
2023-03-17T21:10:18.186Z,100.00
2023-03-17T21:10:49.702Z,100.00
2023-03-17T21:12:45.636Z,100.00
2023-03-17T21:15:14.026Z,100.00
2023-03-17T21:15:49.735Z,100.00
2023-03-17T21:17:44.056Z,100.00
2023-03-17T21:20:13.651Z,100.00
2023-03-17T21:20:49.721Z,100.00
2023-03-17T21:22:40.815Z,100.00
2023-03-17T21:25:09.782Z,100.00
2023-03-17T21:25:49.723Z,100.00
2023-03-17T21:27:37.754Z,100.00
2023-03-17T21:30:06.667Z,100.00
2023-03-17T21:30:49.694Z,100.00